createdAt,value
2022-07-29T00:00:46.343Z,16.83
2022-07-29T00:05:47.898Z,16.90
2022-07-29T00:10:49.624Z,16.83
2022-07-29T00:15:51.210Z,16.85
2022-07-29T00:20:52.831Z,16.84
2022-07-29T00:26:00.405Z,16.75
2022-07-29T00:31:02.041Z,16.76
2022-07-29T00:36:03.922Z,16.74
2022-07-29T00:41:05.633Z,16.64
2022-07-29T00:46:21.427Z,16.56
2022-07-29T00:51:23.444Z,16.46
2022-07-29T00:56:24.982Z,16.33
2022-07-29T01:01:27.320Z,16.23
2022-07-29T01:06:29.218Z,16.29
2022-07-29T01:11:30.947Z,16.15
2022-07-29T01:16:36.329Z,16.05
2022-07-29T01:21:53.296Z,16.18
2022-07-29T01:27:27.306Z,15.95
2022-07-29T01:32:32.332Z,16.00
2022-07-29T01:37:38.825Z,15.90
2022-07-29T01:42:44.725Z,15.94
2022-07-29T01:48:12.839Z,15.85
2022-07-29T01:53:19.088Z,15.85
2022-07-29T01:58:22.506Z,15.78
2022-07-29T02:03:24.965Z,15.64
2022-07-29T02:08:29.106Z,15.55
2022-07-29T02:13:32.816Z,15.47
2022-07-29T02:18:37.002Z,15.42
2022-07-29T02:23:51.012Z,15.54
2022-07-29T02:28:57.566Z,15.43
2022-07-29T02:34:01.364Z,15.28
2022-07-29T02:39:05.082Z,15.41
2022-07-29T02:44:11.691Z,15.43
2022-07-29T02:49:22.219Z,15.34
2022-07-29T02:54:32.096Z,15.18
2022-07-29T02:59:35.359Z,15.33
2022-07-29T03:04:41.070Z,15.35
2022-07-29T03:09:43.875Z,15.36
2022-07-29T03:14:46.035Z,15.44
2022-07-29T03:19:47.954Z,15.44
2022-07-29T03:24:49.544Z,15.39
2022-07-29T03:29:51.171Z,15.44
2022-07-29T03:34:52.904Z,15.40
2022-07-29T03:39:56.731Z,15.13
2022-07-29T03:45:04.466Z,14.98
2022-07-29T03:50:13.037Z,14.98
2022-07-29T03:55:15.900Z,14.92
2022-07-29T04:00:17.859Z,14.95
2022-07-29T04:05:20.302Z,14.99
2022-07-29T04:10:25.199Z,14.92
2022-07-29T04:15:33.020Z,14.73
2022-07-29T04:20:34.628Z,14.81
2022-07-29T04:25:40.936Z,14.87
2022-07-29T04:30:42.479Z,14.75
2022-07-29T04:35:50.481Z,14.45
2022-07-29T04:40:53.917Z,14.20
2022-07-29T04:45:56.215Z,14.24
2022-07-29T04:50:58.191Z,14.20
2022-07-29T04:56:00.286Z,14.03
2022-07-29T05:01:01.974Z,13.87
2022-07-29T05:06:03.725Z,13.70
2022-07-29T05:11:12.087Z,13.70
2022-07-29T05:16:41.264Z,13.94
2022-07-29T05:21:42.975Z,13.78
2022-07-29T05:26:44.791Z,13.80
2022-07-29T05:31:46.475Z,13.96
2022-07-29T05:36:48.060Z,14.22
2022-07-29T05:41:51.956Z,14.23
2022-07-29T05:46:53.710Z,14.27
2022-07-29T05:51:55.329Z,14.22
2022-07-29T05:56:56.966Z,14.22
2022-07-29T06:01:59.033Z,14.07
2022-07-29T06:07:00.632Z,14.12
2022-07-29T06:12:02.430Z,14.23
2022-07-29T06:17:04.031Z,14.10
2022-07-29T06:22:05.758Z,14.09
2022-07-29T06:27:07.319Z,14.06
2022-07-29T06:32:10.155Z,14.08
2022-07-29T06:37:15.375Z,13.91
2022-07-29T06:42:17.377Z,13.98
2022-07-29T06:47:18.940Z,13.94
2022-07-29T06:52:20.798Z,13.95
2022-07-29T06:57:23.166Z,14.01
2022-07-29T07:02:24.820Z,14.07
2022-07-29T07:07:26.721Z,13.96
2022-07-29T07:12:28.387Z,14.07
2022-07-29T07:17:30.212Z,14.10
2022-07-29T07:22:35.662Z,14.14
2022-07-29T07:27:40.279Z,14.57
2022-07-29T07:32:41.894Z,14.80
2022-07-29T07:37:43.612Z,14.82
2022-07-29T07:42:45.565Z,15.11
2022-07-29T07:47:47.747Z,14.85
2022-07-29T07:52:52.959Z,14.88
2022-07-29T07:57:57.329Z,14.93
2022-07-29T08:02:59.602Z,14.98
2022-07-29T08:08:01.222Z,15.00
2022-07-29T08:13:07.748Z,15.37
2022-07-29T08:18:09.670Z,15.46
2022-07-29T08:23:11.297Z,15.59
2022-07-29T08:28:12.990Z,15.23
2022-07-29T08:33:14.751Z,15.30
2022-07-29T08:38:16.292Z,15.09
2022-07-29T08:43:17.916Z,15.14
2022-07-29T08:48:22.368Z,15.28
2022-07-29T08:53:27.432Z,15.22
2022-07-29T08:58:36.522Z,15.07
2022-07-29T09:03:40.580Z,15.38
2022-07-29T09:08:42.779Z,15.38
2022-07-29T09:13:45.544Z,15.44
2022-07-29T09:18:48.183Z,15.18
2022-07-29T09:24:13.037Z,15.52
2022-07-29T09:29:19.938Z,15.44
2022-07-29T09:34:29.572Z,15.52
2022-07-29T09:39:33.284Z,15.66
2022-07-29T09:44:49.498Z,15.82
2022-07-29T09:49:52.798Z,15.84
2022-07-29T09:54:57.215Z,15.73
2022-07-29T10:00:09.544Z,15.65
2022-07-29T10:05:25.099Z,15.69
2022-07-29T10:10:32.889Z,15.98
2022-07-29T10:15:41.640Z,16.69
2022-07-29T10:20:43.239Z,17.16
2022-07-29T10:25:47.076Z,17.50
2022-07-29T10:30:52.396Z,17.82
2022-07-29T10:36:06.021Z,17.75
2022-07-29T10:41:32.065Z,17.88
2022-07-29T10:46:38.659Z,18.27
2022-07-29T10:57:54.645Z,18.49
2022-07-29T11:02:52.174Z,18.67
2022-07-29T11:08:19.983Z,18.73
2022-07-29T11:13:44.678Z,18.99
2022-07-29T11:19:13.610Z,18.62
2022-07-29T11:29:58.533Z,19.45
2022-07-29T11:35:38.556Z,19.83
2022-07-29T11:40:42.584Z,20.69
2022-07-29T11:45:48.039Z,20.49
2022-07-29T11:50:50.255Z,21.60
2022-07-29T11:55:56.320Z,22.28
2022-07-29T12:01:04.123Z,21.49
2022-07-29T12:11:38.729Z,21.93
2022-07-29T12:16:41.542Z,21.50
2022-07-29T12:21:56.225Z,21.71
2022-07-29T12:27:00.251Z,21.75
2022-07-29T12:32:02.910Z,22.40
2022-07-29T12:37:04.902Z,22.18
2022-07-29T12:42:14.829Z,22.38
2022-07-29T12:47:19.164Z,22.41
2022-07-29T12:52:34.519Z,22.37
2022-07-29T12:57:47.974Z,22.73
2022-07-29T13:02:56.890Z,22.71
2022-07-29T13:08:21.895Z,22.54
2022-07-29T13:13:24.008Z,23.13
2022-07-29T13:18:33.731Z,23.02
2022-07-29T13:23:38.390Z,23.09
2022-07-29T13:28:40.943Z,22.76
2022-07-29T13:33:45.950Z,23.24
2022-07-29T13:38:48.125Z,23.29
2022-07-29T13:43:50.095Z,23.05
2022-07-29T13:48:51.822Z,22.77
2022-07-29T13:53:56.796Z,22.93
2022-07-29T13:58:58.457Z,22.87
2022-07-29T14:04:00.148Z,22.76
2022-07-29T14:09:03.509Z,22.51
2022-07-29T14:14:05.840Z,22.35
2022-07-29T14:19:07.401Z,22.40
2022-07-29T14:24:16.225Z,23.02
2022-07-29T14:29:23.529Z,23.05
2022-07-29T14:34:40.630Z,23.45
2022-07-29T14:39:43.278Z,23.64
2022-07-29T14:44:45.249Z,23.31
2022-07-29T14:49:48.571Z,23.52
2022-07-29T14:54:50.193Z,23.52
2022-07-29T14:59:51.751Z,23.64
2022-07-29T15:04:53.403Z,23.43
2022-07-29T15:09:59.535Z,23.55
2022-07-29T15:15:01.358Z,23.67
2022-07-29T15:20:05.930Z,23.91
2022-07-29T15:25:08.093Z,23.53
2022-07-29T15:30:10.575Z,23.70
2022-07-29T15:35:29.493Z,23.67
2022-07-29T15:40:31.166Z,23.94
2022-07-29T15:45:40.526Z,23.99
2022-07-29T15:50:42.227Z,23.72
2022-07-29T15:55:48.689Z,23.65
2022-07-29T16:00:50.421Z,23.62
2022-07-29T16:05:52.069Z,23.81
2022-07-29T16:10:53.814Z,23.73
2022-07-29T16:16:02.343Z,23.97
2022-07-29T16:21:04.652Z,24.07
2022-07-29T16:26:06.591Z,24.16
2022-07-29T16:31:09.113Z,23.31
2022-07-29T16:36:10.758Z,23.89
2022-07-29T16:41:14.947Z,23.88
2022-07-29T16:46:19.064Z,23.72
2022-07-29T16:51:21.222Z,23.99
2022-07-29T16:56:24.911Z,23.96
2022-07-29T17:01:26.585Z,23.89
2022-07-29T17:06:29.658Z,23.64
2022-07-29T17:11:51.990Z,23.59
2022-07-29T17:17:01.396Z,23.52
2022-07-29T17:22:18.755Z,23.01
2022-07-29T17:27:20.844Z,22.92
2022-07-29T17:32:23.417Z,22.67
2022-07-29T17:37:24.994Z,22.48
2022-07-29T17:42:26.617Z,22.39
2022-07-29T17:47:28.150Z,22.04
2022-07-29T17:52:29.752Z,21.76
2022-07-29T17:57:31.407Z,21.54
2022-07-29T18:02:33.522Z,21.58
2022-07-29T18:07:35.235Z,21.56
2022-07-29T18:12:38.820Z,21.60
2022-07-29T18:17:57.326Z,21.38
2022-07-29T18:23:00.365Z,21.49
2022-07-29T18:28:05.002Z,21.51
2022-07-29T18:33:21.701Z,21.35
2022-07-29T18:38:24.018Z,21.20
2022-07-29T18:43:25.716Z,21.29
2022-07-29T18:48:28.364Z,21.06
2022-07-29T18:53:29.919Z,21.04
2022-07-29T18:58:33.428Z,21.10
2022-07-29T19:03:35.275Z,20.97
2022-07-29T19:08:36.833Z,20.79
2022-07-29T19:13:38.939Z,20.67
2022-07-29T19:18:40.628Z,20.65
2022-07-29T19:24:05.909Z,20.57
2022-07-29T19:29:04.327Z,20.54
2022-07-29T19:34:05.932Z,20.49
2022-07-29T19:39:07.628Z,20.25
2022-07-29T19:44:11.295Z,20.18
2022-07-29T19:49:13.693Z,20.08
2022-07-29T19:54:18.241Z,20.22
2022-07-29T19:59:20.070Z,20.05
2022-07-29T20:04:26.191Z,19.89
2022-07-29T20:09:29.857Z,19.56
2022-07-29T20:14:31.587Z,19.43
2022-07-29T20:19:33.544Z,19.25
2022-07-29T20:24:36.225Z,19.24
2022-07-29T20:29:38.385Z,19.34
2022-07-29T20:34:43.425Z,19.30
2022-07-29T20:39:47.832Z,19.46
2022-07-29T20:44:51.098Z,19.59
2022-07-29T20:49:53.062Z,19.65
2022-07-29T20:54:54.669Z,19.57
2022-07-29T20:59:56.271Z,19.62
2022-07-29T21:04:57.886Z,19.54
2022-07-29T21:09:59.447Z,19.63
2022-07-29T21:15:05.707Z,19.53
2022-07-29T21:20:08.640Z,19.57
2022-07-29T21:25:11.093Z,19.65
2022-07-29T21:30:12.807Z,19.71
2022-07-29T21:35:35.991Z,19.41
2022-07-29T21:40:36.122Z,19.33
2022-07-29T21:45:37.914Z,19.47
2022-07-29T21:50:41.529Z,19.31
2022-07-29T21:55:43.611Z,19.48
2022-07-29T22:00:45.663Z,19.46
2022-07-29T22:05:47.259Z,19.51
2022-07-29T22:10:48.877Z,19.17
2022-07-29T22:15:52.671Z,19.25
2022-07-29T22:20:54.267Z,19.14
2022-07-29T22:25:55.823Z,19.14
2022-07-29T22:30:59.482Z,19.06
2022-07-29T22:36:01.165Z,18.99
2022-07-29T22:41:05.769Z,18.96
2022-07-29T22:46:09.879Z,18.91
2022-07-29T22:51:11.488Z,18.95
2022-07-29T22:56:13.323Z,19.10
2022-07-29T23:01:15.636Z,18.96
2022-07-29T23:06:17.349Z,18.77
2022-07-29T23:11:18.881Z,18.60
2022-07-29T23:16:26.158Z,18.42
2022-07-29T23:21:28.742Z,18.22
2022-07-29T23:26:31.759Z,17.93
2022-07-29T23:31:34.757Z,17.63
2022-07-29T23:36:43.587Z,17.47
2022-07-29T23:41:45.115Z,17.21
2022-07-29T23:46:46.726Z,17.31
2022-07-29T23:51:48.266Z,16.80
2022-07-29T23:56:49.853Z,16.81
